Flight Track Log - Related Links

Times and Time Zones

All times are in EST time to prevent confusion due to time zone crossing. See the UAL6148 flight status page for this flight to view local times or setup timezone preferences in your user account.


Time Position Orientation Groundspeed Altitude Reporting Facility
EST Latitude Longitude Course Direction KTS MPH feet Rate Location/Type
Sun 02:49:46 PM 37.6333 -122.3667 185° South 150 173 1,300  Level Northern Cal TRACON
Sun 02:50:46 PM 37.6833 -122.3667 360° North 201 231 4,800 2,880 Climbing Northern Cal TRACON
Sun 02:51:01 PM 37.6925 -122.3611 26° Northeast 203 234 4,900 3,237 Climbing Oakland Center
Sun 02:52:02 PM 37.7203 -122.4250 299° West 264 304 8,900 4,293 Climbing Oakland Center
Sun 02:53:04 PM 37.6242 -122.4756 203° Southwest 330 380 13,700 4,244 Climbing Oakland Center
Sun 02:54:05 PM 37.5231 -122.4917 187° South 355 409 17,600 3,415 Climbing Oakland Center
Sun 02:55:00 PM 37.2297 -122.5287 185° South  Level FlightAware Approximate
Sun 02:55:07 PM 37.4181 -122.5072 187° South 372 428 20,700  Level Oakland Center
Sun 02:56:08 PM 37.3047 -122.5225 186° South 419 482 23,700 2,927 Climbing Oakland Center
Sun 02:57:10 PM 37.1875 -122.5392 186° South 423 487 26,700 2,829 Climbing Oakland Center
Sun 02:58:11 PM 37.0714 -122.5558 187° South 422 486 29,500 2,098 Climbing Oakland Center
Sun 02:59:13 PM 36.9519 -122.5683 185° South 432 497 31,000 683 Climbing Oakland Center
Sun 03:00:14 PM 36.8228 -122.5381 169° South 472 543 30,900  Descending Oakland Center
Sun 03:01:16 PM 36.6922 -122.5042 168° South 478 550 31,000 49 Climbing Oakland Center
Sun 03:02:17 PM 36.5375 -122.4622 168° South 475 547 31,000  Level Oakland Center
Sun 03:03:18 PM 36.4114 -122.4106 162° South 481 554 31,000  Level Oakland Center
Sun 03:04:20 PM 36.3228 -122.2906 132° Southeast 477 549 31,000 -49 Level Oakland Center
Sun 03:05:21 PM 36.2372 -122.1672 131° Southeast 474 545 30,900  Descending Oakland Center
Sun 03:06:23 PM 36.1511 -122.0422 130° Southeast 477 549 31,000 49 Climbing Oakland Center
Sun 03:07:24 PM 36.0658 -121.9178 130° Southeast 477 549 31,000  Level Oakland Center
Sun 03:08:25 PM 35.9808 -121.7958 131° Southeast 476 548 31,000  Level Oakland Center
Sun 03:09:27 PM 35.8781 -121.6475 131° Southeast 475 547 31,000  Level Oakland Center
Sun 03:10:28 PM 35.7914 -121.5250 131° Southeast 476 548 31,000  Level Oakland Center
Sun 03:11:30 PM 35.7058 -121.4011 130° Southeast 475 547 31,000  Level Oakland Center
Sun 03:12:31 PM 35.6203 -121.2789 131° Southeast 474 545 31,000  Level Oakland Center
Sun 03:13:33 PM 35.5328 -121.1558 131° Southeast 478 550 31,000  Level Oakland Center
Sun 03:14:34 PM 35.4264 -121.0453 140° Southeast 502 578 31,000 -49 Level Oakland Center
Sun 03:15:35 PM 35.3097 -120.9542 147° Southeast 502 578 30,900 -75 Descending Oakland Center
Sun 03:15:54 PM 35.2658 -120.9217 149° Southeast 503 579 30,900 74 Level Los Angeles Center
Sun 03:16:56 PM 35.1500 -120.8292 147° Southeast 489 563 31,000 48 Climbing Los Angeles Center
Sun 03:17:58 PM 35.0369 -120.7450 149° Southeast 486 559 31,000 -48 Level Los Angeles Center
Sun 03:19:00 PM 34.9239 -120.6558 147° Southeast 484 557 30,900  Descending Los Angeles Center
Sun 03:20:02 PM 34.7900 -120.5508 147° Southeast 481 554 31,000  Climbing Los Angeles Center
Sun 03:21:04 PM 34.6775 -120.4625 147° Southeast 483 556 30,900 -532 Descending Los Angeles Center
Sun 03:22:06 PM 34.5642 -120.3772 148° Southeast 482 555 29,900 -912 Descending Los Angeles Center
Sun 03:23:09 PM 34.4511 -120.2917 148° Southeast 481 554 29,000 -960 Descending Los Angeles Center
Sun 03:24:11 PM 34.3247 -120.1958 148° Southeast 475 547 27,900 -1,016 Descending Los Angeles Center
Sun 03:25:13 PM 34.2283 -120.0942 139° Southeast 468 539 26,900 -968 Descending Los Angeles Center
Sun 03:26:15 PM 34.1650 -119.9658 121° Southeast 453 521 25,900 -968 Descending Los Angeles Center
Sun 03:27:17 PM 34.1025 -119.8411 121° Southeast 438 504 24,900 -1,065 Descending Los Angeles Center
Sun 03:28:19 PM 34.0275 -119.6928 121° Southeast 433 498 23,700 -1,065 Descending Los Angeles Center
Sun 03:29:21 PM 33.9669 -119.5714 121° Southeast 425 489 22,700 -968 Descending Los Angeles Center
Sun 03:30:23 PM 33.9058 -119.4517 122° Southeast 422 486 21,700 -1,113 Descending Los Angeles Center
Sun 03:31:25 PM 33.8467 -119.3342 121° Southeast 414 476 20,400 -1,584 Descending Los Angeles Center
Sun 03:32:28 PM 33.7914 -119.2233 121° Southeast 388 447 18,400 -1,920 Descending Los Angeles Center
Sun 03:33:30 PM 33.7347 -119.1128 122° Southeast 386 444 16,400 -2,190 Descending Los Angeles Center
Sun 03:34:34 PM 33.6683 -118.9842 122° Southeast 379 436 13,800 -2,323 Descending Los Angeles Center
Sun 03:35:34 PM 33.6133 -118.8797 122° Southeast 374 430 11,600 -1,475 Descending Los Angeles Center
Sun 03:36:36 PM 33.5619 -118.7775 121° Southeast 361 415 10,800 -774 Descending Los Angeles Center
Sun 03:37:38 PM 33.5319 -118.6706 109° East 343 395 10,000 -1,161 Descending Los Angeles Center
Sun 03:38:40 PM 33.5028 -118.5742 110° East 319 367 8,400 -1,694 Descending Los Angeles Center
Sun 03:39:42 PM 33.4758 -118.4683 107° East 286 329 6,500 -1,645 Descending Los Angeles Center
Sun 03:40:44 PM 33.4569 -118.3850 105° East 268 308 5,000 -720 Descending Los Angeles Center
Sun 03:41:47 PM 33.4406 -118.3008 103° East 263 303 5,000 -384 Level Los Angeles Center
Sun 03:42:49 PM 33.4225 -118.2192 105° East 258 297 4,200 -968 Descending Los Angeles Center
Sun 03:43:51 PM 33.4014 -118.1389 107° East 255 293 3,000 -1,016 Descending Los Angeles Center
Sun 03:44:53 PM 33.4239 -118.0550 72° East 240 276 2,100 -484 Descending Los Angeles Center
Sun 03:45:55 PM 33.4619 -117.9986 51° Northeast 226 260 2,000 -48 Descending Los Angeles Center
Sun 03:46:57 PM 33.5183 -117.9661 26° Northeast 226 260 2,000 -97 Level Los Angeles Center
Sun 03:47:59 PM 33.5669 -117.9369 27° Northeast 210 242 1,800 -339 Descending Los Angeles Center
Sun 03:49:01 PM 33.6111 -117.9092 28° Northeast 162 186 1,300 -621 Descending Los Angeles Center
Sun 03:49:55 PM 33.6333 -117.8833 44° Northeast 129 148 600 -579 Descending Southern California TRACON
Sun 03:50:55 PM 33.6667 -117.8667 23° Northeast 121 139 200 -400 Descending Southern California TRACON
Sun 03:53:00 PM 33.6757 -117.8682 23° Northeast  Level Estimated

Login

Don't have an account? Register now (free) for customized features, flight alerts, and more!